Time;durP1;ratioP1;P1;durP2;ratioP2;P2;SDS_P1;SDS_P2;PMS_P1;PMS_P2;Temp;Humidity;BMP_temperature;BMP_pressure;BME280_temperature;BME280_humidity;BME280_pressure;Samples;Min_cycle;Max_cycle;Signal;HPM_P1;HPM_P2
2023/04/19 00:03:06;;;;;;;8.68;5.85;;;;;;;10.52;55.17;101610.19;10155261;29;20130;-76
2023/04/19 00:08:09;;;;;;;7.13;4.35;;;;;;;10.45;55.67;101608.84;10158884;29;20051;-76
2023/04/19 00:13:12;;;;;;;5.70;4.50;;;;;;;10.37;56.16;101605.75;10165801;29;20464;-76
2023/04/19 00:18:16;;;;;;;9.27;4.95;;;;;;;10.29;56.47;101598.16;10168566;29;20072;-76
2023/04/19 00:23:19;;;;;;;10.55;5.38;;;;;;;10.20;56.23;101589.78;10154251;29;20466;-76
2023/04/19 00:28:22;;;;;;;5.60;4.97;;;;;;;10.08;56.31;101602.13;10140398;29;20456;-76
2023/04/19 00:33:26;;;;;;;7.18;5.20;;;;;;;10.09;56.58;101603.84;10157033;29;20072;-76
2023/04/19 00:38:32;;;;;;;7.43;5.10;;;;;;;10.04;56.40;101592.53;10156755;29;20139;-76
2023/04/19 00:43:34;;;;;;;;;;;;;;;9.96;56.30;101587.63;10137194;29;20575;-77
2023/04/19 00:48:38;;;;;;;7.25;5.13;;;;;;;9.83;55.98;101589.28;10158974;29;19923;-76
2023/04/19 00:53:41;;;;;;;6.78;5.50;;;;;;;9.72;55.80;101588.06;10145701;29;20100;-76
2023/04/19 00:58:44;;;;;;;8.48;6.25;;;;;;;9.60;55.52;101587.91;10139268;29;20048;-76
2023/04/19 01:03:48;;;;;;;9.20;5.53;;;;;;;9.51;55.24;101597.38;10161877;29;20059;-76
2023/04/19 01:08:51;;;;;;;9.27;5.70;;;;;;;9.40;55.34;101587.25;10178734;29;20055;-76
2023/04/19 01:13:57;;;;;;;7.63;5.57;;;;;;;9.45;55.21;101587.00;10163789;29;20147;-76
2023/04/19 01:19:01;;;;;;;10.15;6.15;;;;;;;9.41;54.34;101580.09;10155318;29;20588;-77
2023/04/19 01:24:06;;;;;;;7.32;5.45;;;;;;;9.36;53.19;101583.03;10136073;29;20127;-76
2023/04/19 01:29:09;;;;;;;8.85;5.80;;;;;;;9.34;53.34;101576.88;10146504;29;20428;-76
2023/04/19 01:34:12;;;;;;;8.13;6.15;;;;;;;9.33;53.04;101580.53;10160721;29;20047;-76
2023/04/19 01:39:17;;;;;;;10.13;6.10;;;;;;;9.32;52.88;101576.09;10166330;29;20135;-76
2023/04/19 01:44:20;;;;;;;11.00;6.38;;;;;;;9.36;52.35;101574.13;10150170;29;20044;-76
2023/04/19 01:49:22;;;;;;;10.98;6.55;;;;;;;9.31;52.01;101563.66;10164831;29;20515;-76
2023/04/19 01:54:27;;;;;;;9.35;6.10;;;;;;;9.28;51.78;101570.06;10164059;29;20048;-76
2023/04/19 01:59:29;;;;;;;9.35;5.55;;;;;;;9.32;51.71;101569.88;10153208;29;20088;-76
2023/04/19 02:04:34;;;;;;;7.57;5.85;;;;;;;9.26;51.71;101568.41;10136026;29;20052;-76
2023/04/19 02:09:38;;;;;;;8.75;6.20;;;;;;;9.21;51.73;101565.13;10156636;29;20223;-76
2023/04/19 02:14:41;;;;;;;8.98;6.35;;;;;;;9.12;53.73;101565.66;10163930;29;20052;-77
2023/04/19 02:19:44;;;;;;;9.15;6.43;;;;;;;8.98;53.54;101571.78;10165935;29;20720;-76
2023/04/19 02:24:50;;;;;;;6.75;5.90;;;;;;;8.74;52.02;101563.28;10156918;29;20107;-76
2023/04/19 02:29:52;;;;;;;10.60;5.85;;;;;;;8.49;50.24;101567.28;10139203;29;20100;-76
2023/04/19 02:34:55;;;;;;;9.05;5.47;;;;;;;8.40;49.51;101573.09;10137268;29;20111;-76
2023/04/19 02:39:59;;;;;;;9.77;5.05;;;;;;;8.29;48.28;101570.13;10156317;29;20057;-76
2023/04/19 02:45:04;;;;;;;6.97;4.75;;;;;;;8.14;47.24;101572.63;10147665;29;20052;-76
2023/04/19 02:50:08;;;;;;;7.53;4.60;;;;;;;8.04;46.40;101576.75;10211651;23;20389;-79
2023/04/19 02:55:19;;;;;;;8.30;4.53;;;;;;;8.02;45.71;101573.28;10205328;29;20075;-80
2023/04/19 03:00:25;;;;;;;7.63;3.85;;;;;;;7.89;45.01;101566.81;10199047;29;20095;-80
2023/04/19 03:05:38;;;;;;;7.57;3.60;;;;;;;7.76;44.44;101574.59;10208476;29;20050;-75
2023/04/19 03:10:42;;;;;;;5.57;3.67;;;;;;;7.66;44.77;101576.03;10238994;29;20035;-76
2023/04/19 03:15:46;;;;;;;10.20;3.50;;;;;;;7.72;45.07;101573.91;10194939;29;20137;-79
2023/04/19 03:20:50;;;;;;;5.20;3.53;;;;;;;7.65;45.30;101576.94;10214324;29;20072;-79
2023/04/19 03:25:55;;;;;;;6.10;3.47;;;;;;;7.54;45.92;101572.13;10201039;29;20079;-79
2023/04/19 03:31:07;;;;;;;6.30;3.75;;;;;;;7.31;46.15;101581.28;10202994;29;20051;-76
2023/04/19 03:36:10;;;;;;;6.50;3.30;;;;;;;7.23;46.47;101584.31;10207958;29;20052;-79
2023/04/19 03:41:21;;;;;;;8.40;3.45;;;;;;;7.14;46.79;101581.25;10206374;29;20419;-79
2023/04/19 03:46:30;;;;;;;5.47;3.20;;;;;;;7.09;46.99;101567.22;10208770;29;20439;-75
2023/04/19 03:51:34;;;;;;;3.63;3.20;;;;;;;6.94;46.93;101571.47;10204463;29;20095;-78
2023/04/19 03:56:38;;;;;;;9.02;3.03;;;;;;;6.90;46.75;101572.56;10204771;29;20099;-77
2023/04/19 04:01:41;;;;;;;7.47;3.55;;;;;;;6.79;46.84;101573.91;10207952;29;20059;-78
2023/04/19 04:06:45;;;;;;;5.85;3.05;;;;;;;6.71;47.32;101580.53;10192660;29;20052;-80
2023/04/19 04:11:52;;;;;;;4.75;2.92;;;;;;;6.68;47.04;101576.19;10205874;29;20055;-80
2023/04/19 04:16:55;;;;;;;8.02;2.83;;;;;;;6.59;47.15;101579.31;10224259;29;20051;-79
2023/04/19 04:21:58;;;;;;;7.50;3.30;;;;;;;6.51;47.27;101584.13;10205166;29;20554;-79
2023/04/19 04:27:04;;;;;;;4.13;2.83;;;;;;;6.47;47.59;101585.16;10222631;29;20099;-79
2023/04/19 04:32:12;;;;;;;4.70;3.30;;;;;;;6.42;48.35;101589.84;10203317;29;20079;-78
2023/04/19 04:37:17;;;;;;;5.85;3.28;;;;;;;6.27;49.17;101597.59;10233423;29;20100;-75
2023/04/19 04:42:23;;;;;;;6.38;3.13;;;;;;;6.12;49.21;101601.81;10224354;29;20523;-79
2023/04/19 04:47:31;;;;;;;7.32;3.33;;;;;;;6.00;49.61;101605.00;10206628;29;20103;-78
2023/04/19 04:52:37;;;;;;;3.47;2.55;;;;;;;6.01;49.59;101611.22;10203199;29;20058;-79
2023/04/19 04:57:55;;;;;;;3.45;2.63;;;;;;;6.06;49.60;101606.53;10208998;29;20506;-79
2023/04/19 05:03:05;;;;;;;6.03;2.77;;;;;;;6.02;49.68;101615.59;10193662;29;20503;-80
2023/04/19 05:08:13;;;;;;;4.55;2.83;;;;;;;5.98;49.70;101612.22;10206763;29;20055;-80
2023/04/19 05:13:19;;;;;;;5.57;2.72;;;;;;;5.96;49.84;101614.06;10207748;29;20052;-80
2023/04/19 05:18:23;;;;;;;7.15;2.70;;;;;;;6.01;49.79;101616.56;10200281;29;20048;-79
2023/04/19 05:23:25;;;;;;;5.55;3.05;;;;;;;5.97;49.82;101617.59;10210020;29;20062;-80
2023/04/19 05:28:31;;;;;;;6.25;2.70;;;;;;;6.01;50.34;101605.88;10192711;29;20044;-78
2023/04/19 05:33:42;;;;;;;;;;;;;;;6.10;50.72;101610.81;10204805;29;20044;-80
2023/04/19 05:38:45;;;;;;;3.97;3.13;;;;;;;6.08;50.84;101610.00;10205098;29;19988;-79
2023/04/19 05:43:49;;;;;;;4.85;3.67;;;;;;;6.24;50.67;101605.75;10212767;29;20056;-79
2023/04/19 05:48:52;;;;;;;5.63;2.78;;;;;;;6.34;50.30;101611.56;10230274;29;20043;-79
2023/04/19 05:54:13;;;;;;;6.25;3.10;;;;;;;6.51;50.58;101601.00;10204557;29;20052;-79
2023/04/19 05:59:22;;;;;;;10.18;3.28;;;;;;;6.53;50.09;101609.81;10203796;29;20044;-79
2023/04/19 06:04:25;;;;;;;10.18;3.03;;;;;;;6.61;50.10;101606.81;10202091;29;20036;-79
2023/04/19 06:09:28;;;;;;;14.38;3.22;;;;;;;6.85;49.81;101610.13;10205945;29;20051;-79
2023/04/19 06:14:33;;;;;;;3.80;2.97;;;;;;;6.90;49.73;101616.16;10200440;29;20136;-77
2023/04/19 06:19:36;;;;;;;8.43;2.90;;;;;;;7.08;49.45;101611.78;10207068;29;20036;-78
2023/04/19 06:24:39;;;;;;;9.43;3.03;;;;;;;7.24;49.02;101614.59;10192317;29;20491;-80
2023/04/19 06:29:43;;;;;;;6.75;3.08;;;;;;;7.38;48.76;101617.50;10203907;29;20044;-80
2023/04/19 06:34:46;;;;;;;8.27;3.85;;;;;;;7.32;48.71;101616.91;10200640;29;20063;-79
2023/04/19 06:39:49;;;;;;;4.47;2.78;;;;;;;7.36;49.09;101621.16;10167286;29;20134;-79
2023/04/19 06:44:55;;;;;;;4.75;2.85;;;;;;;7.27;48.95;101620.66;10167105;29;20055;-79
2023/04/19 06:49:58;;;;;;;3.65;2.60;;;;;;;7.41;48.82;101625.34;10153359;29;20430;-78
2023/04/19 06:55:01;;;;;;;11.05;5.22;;;;;;;7.54;48.19;101622.94;10165638;29;20792;-78
2023/04/19 07:00:07;;;;;;;5.95;2.55;;;;;;;7.92;48.29;101620.19;10183097;29;20067;-75
2023/04/19 07:05:11;;;;;;;5.18;2.53;;;;;;;8.18;48.09;101622.41;10187202;29;20055;-77
2023/04/19 07:10:14;;;;;;;4.07;2.25;;;;;;;8.51;47.64;101616.28;10164627;29;20048;-78
2023/04/19 07:15:19;;;;;;;4.38;2.50;;;;;;;8.76;46.65;101623.00;10171176;29;20039;-79
2023/04/19 07:20:22;;;;;;;3.50;2.53;;;;;;;8.89;46.38;101607.13;10161168;29;20055;-79
2023/04/19 07:25:25;;;;;;;2.83;2.15;;;;;;;8.72;46.38;101613.38;10165826;29;20407;-78
2023/04/19 07:30:29;;;;;;;2.30;2.10;;;;;;;8.74;46.18;101611.50;10170324;29;20467;-79
2023/04/19 07:35:32;;;;;;;5.20;2.33;;;;;;;9.04;45.43;101604.47;10176911;29;20141;-79
2023/04/19 07:40:35;;;;;;;4.80;2.50;;;;;;;9.52;45.20;101601.78;10172851;29;20079;-78
2023/04/19 07:45:39;;;;;;;4.35;2.75;;;;;;;9.56;44.59;101599.78;10186247;29;20247;-78
2023/04/19 07:50:42;;;;;;;2.60;2.17;;;;;;;10.03;43.66;101596.19;10179478;29;21130;-79
2023/04/19 07:55:45;;;;;;;4.78;2.10;;;;;;;10.05;43.42;101595.13;10170441;29;20203;-79
2023/04/19 08:00:49;;;;;;;5.43;2.45;;;;;;;10.30;42.73;101583.78;10166009;29;20059;-80
2023/04/19 08:05:52;;;;;;;8.50;3.00;;;;;;;10.22;42.88;101585.19;10175374;29;20514;-79
2023/04/19 08:10:55;;;;;;;4.57;2.92;;;;;;;11.14;42.43;101572.28;10168354;29;21260;-78
2023/04/19 08:16:00;;;;;;;7.25;2.80;;;;;;;11.80;39.63;101572.44;10173468;29;20057;-79
2023/04/19 08:21:05;;;;;;;2.33;2.08;;;;;;;12.27;38.82;101568.31;10167531;29;20047;-79
2023/04/19 08:26:08;;;;;;;3.08;2.22;;;;;;;12.46;38.13;101565.25;10165088;29;20130;-79
2023/04/19 08:31:12;;;;;;;3.70;2.35;;;;;;;12.60;38.41;101568.66;10168864;29;20060;-78
2023/04/19 08:36:16;;;;;;;3.15;2.40;;;;;;;14.14;37.68;101547.34;10174934;29;20062;-79
2023/04/19 08:41:30;;;;;;;4.53;2.88;;;;;;;16.54;32.67;101542.00;10161498;29;20084;-80
2023/04/19 08:46:34;;;;;;;7.03;2.78;;;;;;;16.01;33.42;101542.06;10170728;29;20088;-79
2023/04/19 08:51:38;;;;;;;3.50;2.50;;;;;;;14.56;35.47;101533.31;10170996;29;20067;-80
2023/04/19 08:56:41;;;;;;;4.07;2.95;;;;;;;14.69;35.29;101512.41;10170573;29;20092;-78
2023/04/19 09:01:45;;;;;;;4.72;2.92;;;;;;;14.48;35.50;101520.44;10178382;29;20051;-79
2023/04/19 09:06:48;;;;;;;4.72;2.60;;;;;;;14.75;34.56;101509.19;10162124;29;20040;-77
2023/04/19 09:11:51;;;;;;;2.85;2.20;;;;;;;14.54;33.58;101510.97;10187650;29;20071;-76
2023/04/19 09:17:12;;;;;;;2.47;2.28;;;;;;;14.28;34.06;101502.19;10201968;29;20078;-76
2023/04/19 09:22:15;;;;;;;5.03;2.22;;;;;;;14.50;33.65;101501.34;10174026;29;21290;-77
2023/04/19 09:27:27;;;;;;;5.32;2.40;;;;;;;14.08;33.91;101496.50;10163888;29;20267;-79
2023/04/19 09:32:48;;;;;;;4.38;2.13;;;;;;;14.35;32.87;101487.22;10156587;29;20059;-77
2023/04/19 09:37:59;;;;;;;3.55;2.40;;;;;;;14.16;32.09;101483.25;10163005;29;20179;-78
2023/04/19 09:43:05;;;;;;;3.45;2.40;;;;;;;14.31;32.75;101483.88;10164601;29;20108;-78
2023/04/19 09:48:30;;;;;;;5.28;2.40;;;;;;;14.46;32.82;101478.28;10159120;29;20048;-76
2023/04/19 09:53:33;;;;;;;5.10;2.58;;;;;;;14.92;31.98;101477.22;10168504;29;20067;-78
2023/04/19 09:58:37;;;;;;;2.95;2.38;;;;;;;15.11;30.80;101454.91;10164366;29;20063;-77
2023/04/19 10:03:55;;;;;;;3.40;2.38;;;;;;;15.48;31.57;101458.13;10170480;29;20094;-78
2023/04/19 10:09:09;;;;;;;3.72;2.38;;;;;;;15.94;30.53;101446.03;10169296;29;20052;-80
2023/04/19 10:14:14;;;;;;;5.55;2.78;;;;;;;16.00;30.10;101444.66;10168035;29;20047;-80
2023/04/19 10:19:20;;;;;;;3.22;2.28;;;;;;;16.13;28.66;101429.03;10175332;29;20058;-79
2023/04/19 10:24:23;;;;;;;4.97;2.10;;;;;;;16.54;28.30;101414.50;10179999;28;20051;-78
2023/04/19 10:29:57;;;;;;;3.05;2.45;;;;;;;16.09;28.28;101419.44;10173274;28;20056;-78
2023/04/19 10:35:08;;;;;;;3.30;2.45;;;;;;;16.36;27.08;101399.88;10177823;28;20260;-79
2023/04/19 10:40:11;;;;;;;7.88;2.65;;;;;;;16.74;27.55;101406.41;10161394;29;20537;-79
2023/04/19 10:45:33;;;;;;;3.47;2.53;;;;;;;16.51;25.14;101395.81;10171835;29;20048;-77
2023/04/19 10:50:59;;;;;;;3.13;2.13;;;;;;;16.23;25.55;101393.81;10212060;29;20055;-75
2023/04/19 10:56:02;;;;;;;4.05;1.95;;;;;;;16.28;25.77;101387.00;10193872;29;20050;-78
2023/04/19 11:01:32;;;;;;;8.43;2.42;;;;;;;18.07;25.34;101374.00;10170646;29;20056;-79
2023/04/19 11:06:37;;;;;;;4.35;2.10;;;;;;;18.55;25.12;101364.75;10163975;29;20596;-79
2023/04/19 11:11:40;;;;;;;7.22;2.50;;;;;;;19.19;25.15;101358.25;10173844;29;20059;-79
2023/04/19 11:16:43;;;;;;;2.85;2.40;;;;;;;19.87;24.68;101348.53;10171310;29;20063;-79
2023/04/19 11:21:49;;;;;;;4.57;2.47;;;;;;;19.83;24.37;101345.28;10173923;29;20052;-79
2023/04/19 11:26:52;;;;;;;4.05;2.03;;;;;;;19.76;23.76;101324.28;10182069;29;20063;-77
2023/04/19 11:32:00;;;;;;;2.95;2.08;;;;;;;18.93;23.80;101317.38;10168357;29;20080;-78
2023/04/19 11:37:04;;;;;;;2.92;2.28;;;;;;;19.54;24.21;101317.47;10164692;29;20067;-77
2023/04/19 11:42:17;;;;;;;8.82;2.08;;;;;;;19.11;23.71;101301.00;10177788;29;20051;-78
2023/04/19 11:47:20;;;;;;;4.75;2.38;;;;;;;20.17;23.13;101297.19;10175592;29;20095;-79
2023/04/19 11:52:26;;;;;;;2.33;2.10;;;;;;;20.76;23.39;101279.78;10164221;29;20047;-76
2023/04/19 11:57:30;;;;;;;4.93;2.17;;;;;;;20.12;22.63;101284.06;10176578;29;20506;-77
2023/04/19 12:02:38;;;;;;;3.30;2.20;;;;;;;20.45;22.79;101270.53;10166705;29;20084;-76
2023/04/19 12:08:01;;;;;;;3.90;1.90;;;;;;;20.31;22.56;101261.13;10166896;29;20048;-76
2023/04/19 12:13:17;;;;;;;6.68;2.33;;;;;;;18.91;23.73;101261.38;10169540;29;20589;-79
2023/04/19 12:18:20;;;;;;;3.67;1.98;;;;;;;18.72;23.52;101254.19;10159504;29;20059;-78
2023/04/19 12:23:24;;;;;;;4.32;2.22;;;;;;;18.64;23.52;101235.94;10168684;29;20132;-79
2023/04/19 12:28:27;;;;;;;3.00;1.92;;;;;;;19.74;23.81;101215.41;10164492;29;20128;-80
2023/04/19 12:33:30;;;;;;;3.97;1.65;;;;;;;21.09;22.30;101216.13;10168770;29;20134;-79
2023/04/19 12:38:34;;;;;;;3.05;1.83;;;;;;;20.71;21.66;101219.38;10167651;29;20058;-78
2023/04/19 12:43:37;;;;;;;3.72;1.92;;;;;;;20.43;22.74;101210.69;10170385;29;20119;-79
2023/04/19 12:48:39;;;;;;;3.28;1.65;;;;;;;21.21;22.29;101209.28;10169910;29;20112;-78
2023/04/19 12:53:47;;;;;;;3.38;1.52;;;;;;;20.40;22.22;101199.22;10172198;29;20199;-77
2023/04/19 12:58:50;;;;;;;3.25;1.45;;;;;;;19.22;21.88;101210.84;10162384;29;20083;-79
2023/04/19 13:03:53;;;;;;;1.90;1.10;;;;;;;19.89;22.04;101181.06;10165476;29;20052;-80
2023/04/19 13:09:02;;;;;;;4.47;1.58;;;;;;;20.37;22.32;101184.06;10171214;29;21290;-80
2023/04/19 13:14:16;;;;;;;4.20;1.80;;;;;;;18.80;23.43;101178.09;10159632;29;20384;-80
2023/04/19 13:19:20;;;;;;;3.78;1.75;;;;;;;17.81;24.15;101176.28;10170254;29;20062;-79
2023/04/19 13:24:24;;;;;;;3.08;1.90;;;;;;;16.82;24.34;101178.66;10157929;29;20547;-79
2023/04/19 13:29:27;;;;;;;4.72;1.50;;;;;;;18.40;23.33;101163.09;10168665;29;21223;-79
2023/04/19 13:34:31;;;;;;;4.03;1.85;;;;;;;19.51;23.08;101127.91;10178028;29;20048;-77
2023/04/19 13:39:35;;;;;;;5.82;1.90;;;;;;;19.72;21.16;101134.81;10157066;29;20056;-79
2023/04/19 13:44:38;;;;;;;5.03;1.95;;;;;;;20.23;21.53;101139.16;10168969;29;20056;-76
2023/04/19 13:49:40;;;;;;;5.22;1.77;;;;;;;20.37;21.57;101124.03;10198996;29;20059;-76
2023/04/19 13:54:45;;;;;;;5.60;2.10;;;;;;;20.16;21.62;101129.09;10173559;29;20068;-79
2023/04/19 13:59:47;;;;;;;2.40;1.73;;;;;;;20.02;21.15;101127.88;10164431;29;20132;-78
2023/04/19 14:04:50;;;;;;;4.15;2.03;;;;;;;20.76;21.37;101118.72;10173537;29;20725;-79
2023/04/19 14:09:54;;;;;;;2.03;1.75;;;;;;;20.31;21.27;101117.38;10157725;29;20487;-78
2023/04/19 14:14:57;;;;;;;4.25;2.13;;;;;;;19.10;21.92;101108.69;10168822;29;20067;-79
2023/04/19 14:20:00;;;;;;;4.53;2.67;;;;;;;19.22;22.77;101114.69;10163227;29;20075;-79
2023/04/19 14:25:05;;;;;;;5.50;2.53;;;;;;;20.30;22.04;101099.28;10165506;29;20128;-78
2023/04/19 14:30:09;;;;;;;5.20;2.10;;;;;;;18.63;23.48;101109.06;10180943;29;20075;-77
2023/04/19 14:35:12;;;;;;;5.03;2.22;;;;;;;18.17;24.53;101111.09;10192370;29;20048;-80
2023/04/19 14:40:18;;;;;;;7.45;3.00;;;;;;;18.86;23.52;101092.22;10168801;29;20654;-80
2023/04/19 14:45:21;;;;;;;4.55;2.40;;;;;;;18.96;23.61;101084.78;10161956;29;20094;-80
2023/04/19 14:50:24;;;;;;;3.33;2.25;;;;;;;18.45;24.18;101090.03;10157828;29;20115;-79
2023/04/19 14:55:28;;;;;;;3.50;2.75;;;;;;;19.03;23.71;101080.38;10166280;29;20732;-79
2023/04/19 15:00:32;;;;;;;6.85;2.60;;;;;;;18.91;23.64;101070.81;10156893;29;20516;-77
2023/04/19 15:05:36;;;;;;;8.80;2.83;;;;;;;18.29;24.55;101079.03;10163886;29;20082;-78
2023/04/19 15:10:40;;;;;;;4.03;3.00;;;;;;;17.13;25.16;101087.00;10159501;29;20063;-79
2023/04/19 15:15:43;;;;;;;8.60;2.80;;;;;;;17.09;25.65;101079.31;10171162;29;20100;-78
2023/04/19 15:20:46;;;;;;;5.07;2.85;;;;;;;16.76;25.43;101077.00;10162785;29;20138;-80
2023/04/19 15:25:50;;;;;;;4.72;2.97;;;;;;;15.57;27.13;101093.59;10167711;29;20056;-79
2023/04/19 15:30:58;;;;;;;6.38;2.97;;;;;;;15.75;27.14;101091.06;10158413;29;20079;-78
2023/04/19 15:36:02;;;;;;;5.38;2.85;;;;;;;14.97;28.04;101085.41;10174007;29;21213;-79
2023/04/19 15:41:06;;;;;;;7.03;3.38;;;;;;;14.66;29.00;101098.06;10196065;29;20055;-78
2023/04/19 15:46:12;;;;;;;6.43;3.03;;;;;;;14.31;28.85;101100.09;10191047;29;20067;-78
2023/04/19 15:51:15;;;;;;;9.05;3.47;;;;;;;14.50;29.35;101102.09;10175446;29;20071;-79
2023/04/19 15:56:19;;;;;;;5.80;2.97;;;;;;;14.38;29.34;101106.72;10166162;29;20044;-79
2023/04/19 16:01:22;;;;;;;8.55;2.92;;;;;;;14.07;29.58;101096.78;10172964;29;20078;-79
2023/04/19 16:06:26;;;;;;;6.82;3.42;;;;;;;14.39;29.80;101102.16;10171116;29;20051;-78
2023/04/19 16:11:30;;;;;;;5.10;3.13;;;;;;;15.33;29.13;101102.06;10166193;29;20071;-77
2023/04/19 16:16:33;;;;;;;8.70;3.42;;;;;;;14.42;29.41;101088.38;10171011;29;20155;-80
2023/04/19 16:21:36;;;;;;;4.65;2.95;;;;;;;13.93;30.07;101104.22;10174594;28;20056;-80
2023/04/19 16:26:40;;;;;;;6.65;2.85;;;;;;;14.10;30.37;101101.94;10181807;28;20047;-80
2023/04/19 16:31:43;;;;;;;3.83;2.65;;;;;;;14.98;29.38;101088.00;10178858;29;20435;-80
2023/04/19 16:36:46;;;;;;;6.00;2.88;;;;;;;15.95;28.26;101089.22;10175214;28;20054;-80
2023/04/19 16:41:50;;;;;;;5.80;2.53;;;;;;;16.05;28.20;101085.53;10175415;28;20531;-78
2023/04/19 16:46:53;;;;;;;4.32;2.80;;;;;;;16.07;28.08;101080.81;10195326;28;20067;-79
2023/04/19 16:51:55;;;;;;;5.18;3.30;;;;;;;16.10;28.28;101058.84;10192191;28;20056;-79
2023/04/19 16:57:01;;;;;;;5.15;2.40;;;;;;;16.05;28.18;101060.28;10168168;29;20052;-79
2023/04/19 17:02:06;;;;;;;8.05;3.28;;;;;;;15.18;29.29;101074.53;10165848;29;20052;-79
2023/04/19 17:07:09;;;;;;;5.28;2.33;;;;;;;14.33;30.44;101084.59;10172312;28;20052;-79
2023/04/19 17:12:13;;;;;;;5.80;2.70;;;;;;;13.67;31.22;101076.69;10178119;28;20044;-78
2023/04/19 17:17:18;;;;;;;5.13;2.35;;;;;;;13.25;31.40;101084.59;10171195;28;20079;-79
2023/04/19 17:22:21;;;;;;;5.80;2.70;;;;;;;12.93;32.37;101086.34;10172092;29;21213;-81
2023/04/19 17:27:25;;;;;;;3.10;2.20;;;;;;;12.90;32.14;101090.13;10174915;28;20048;-78
2023/04/19 17:32:28;;;;;;;4.90;2.47;;;;;;;13.43;31.85;101076.88;10171141;29;20130;-78
2023/04/19 17:37:31;;;;;;;6.15;2.72;;;;;;;13.35;31.66;101079.31;10162865;29;20051;-78
2023/04/19 17:42:35;;;;;;;3.47;2.70;;;;;;;13.04;31.88;101075.56;10158307;29;20520;-79
2023/04/19 17:47:38;;;;;;;5.68;2.53;;;;;;;12.76;32.09;101077.75;10194848;29;20063;-77
2023/04/19 17:52:41;;;;;;;7.65;3.13;;;;;;;12.75;32.17;101076.06;10179138;29;20087;-78
2023/04/19 17:57:46;;;;;;;6.40;2.83;;;;;;;12.17;32.18;101077.84;10162649;29;20052;-79
2023/04/19 18:02:49;;;;;;;4.20;2.78;;;;;;;12.02;32.42;101074.50;10160433;29;20274;-78
2023/04/19 18:07:52;;;;;;;4.78;2.60;;;;;;;11.86;33.00;101082.91;10164558;29;20119;-79
2023/04/19 18:12:57;;;;;;;5.00;2.53;;;;;;;11.73;33.32;101082.94;10197621;29;20072;-76
2023/04/19 18:17:59;;;;;;;4.20;2.70;;;;;;;11.42;33.38;101087.06;10172362;29;20056;-80
2023/04/19 18:23:03;;;;;;;5.53;2.80;;;;;;;11.40;33.67;101082.78;10166161;29;20052;-78
2023/04/19 18:28:07;;;;;;;8.52;2.85;;;;;;;11.24;33.82;101086.59;10153293;29;20186;-79
2023/04/19 18:33:10;;;;;;;5.28;2.53;;;;;;;11.17;33.84;101090.69;10165913;29;20043;-77
2023/04/19 18:38:12;;;;;;;6.65;2.90;;;;;;;11.12;34.31;101094.66;10153265;29;20048;-77
2023/04/19 18:43:17;;;;;;;6.25;3.05;;;;;;;11.15;34.46;101094.47;10160966;29;20043;-76
2023/04/19 18:48:19;;;;;;;4.57;3.05;;;;;;;11.06;34.18;101096.81;10167264;29;20095;-77
2023/04/19 18:53:23;;;;;;;7.30;2.83;;;;;;;11.08;34.17;101103.88;10152555;29;20118;-78
2023/04/19 18:58:28;;;;;;;10.40;3.55;;;;;;;11.12;34.05;101105.41;10165990;29;20434;-76
2023/04/19 19:03:31;;;;;;;7.80;3.67;;;;;;;11.22;33.74;101106.50;10158123;29;20041;-77
2023/04/19 19:08:54;;;;;;;6.55;3.65;;;;;;;11.20;33.09;101105.75;10169621;28;20423;-78
2023/04/19 19:13:58;;;;;;;6.95;3.42;;;;;;;11.29;33.64;101115.81;10174975;28;20071;-79
2023/04/19 19:19:01;;;;;;;5.05;3.58;;;;;;;11.30;33.67;101114.88;10181691;28;20624;-79
2023/04/19 19:24:05;;;;;;;11.18;4.00;;;;;;;11.13;33.53;101109.84;10178786;28;20048;-81
2023/04/19 19:29:11;;;;;;;9.05;3.60;;;;;;;10.81;33.07;101112.97;10182761;28;20057;-78
2023/04/19 19:34:18;;;;;;;7.75;3.80;;;;;;;10.81;32.94;101111.13;10179114;29;20055;-80
2023/04/19 19:39:31;;;;;;;11.80;4.15;;;;;;;10.79;34.66;101110.38;10182078;28;20077;-78
2023/04/19 19:44:35;;;;;;;5.68;3.42;;;;;;;10.62;35.93;101110.72;10186347;28;20129;-76
2023/04/19 19:49:38;;;;;;;7.35;3.83;;;;;;;10.45;35.96;101111.88;10206255;28;20055;-77
2023/04/19 19:55:01;;;;;;;;;;;;;;;10.42;36.23;101108.53;10211724;28;20103;-77
2023/04/19 20:00:10;;;;;;;5.70;3.20;;;;;;;10.41;36.33;101098.78;10169651;29;19933;-79
2023/04/19 20:05:33;;;;;;;5.35;3.58;;;;;;;10.21;36.38;101094.78;10172264;29;20056;-77
2023/04/19 20:10:37;;;;;;;6.95;3.45;;;;;;;10.21;36.25;101092.09;10173911;29;20047;-79
2023/04/19 20:15:44;;;;;;;5.57;3.20;;;;;;;10.07;36.69;101084.97;10162160;29;20055;-77
2023/04/19 20:20:47;;;;;;;7.15;3.10;;;;;;;10.04;36.28;101087.84;10176614;29;20048;-79
2023/04/19 20:25:50;;;;;;;9.75;3.10;;;;;;;9.93;36.41;101089.44;10178596;28;20084;-78
2023/04/19 20:30:55;;;;;;;6.97;2.90;;;;;;;9.92;36.05;101086.84;10178511;28;20052;-78
2023/04/19 20:35:59;;;;;;;4.65;3.50;;;;;;;9.81;36.21;101095.59;10233319;28;20035;-78
2023/04/19 20:41:02;;;;;;;7.03;4.15;;;;;;;9.60;36.09;101089.84;10237349;29;20040;-79
2023/04/19 20:46:07;;;;;;;7.55;3.20;;;;;;;9.52;35.69;101092.16;10219349;29;20052;-79
2023/04/19 20:51:11;;;;;;;4.82;3.40;;;;;;;9.60;35.90;101094.31;10215447;29;20524;-78
2023/04/19 20:56:14;;;;;;;4.00;3.00;;;;;;;9.45;35.96;101090.84;10214641;29;20044;-78
2023/04/19 21:01:18;;;;;;;7.60;2.95;;;;;;;9.04;36.66;101087.16;10209382;29;20058;-79
2023/04/19 21:06:24;;;;;;;7.90;3.13;;;;;;;9.52;36.49;101078.75;10234236;23;20043;-75
2023/04/19 21:11:27;;;;;;;9.23;2.92;;;;;;;9.50;36.84;101070.78;10146981;29;20459;-76
2023/04/19 21:16:31;;;;;;;5.35;3.15;;;;;;;9.57;36.87;101052.50;10158512;29;20671;-76
2023/04/19 21:21:34;;;;;;;6.50;2.85;;;;;;;9.49;37.49;101047.63;10145689;29;20486;-76
2023/04/19 21:26:36;;;;;;;;;;;;;;;9.49;38.26;101044.94;10152782;29;20130;-77
2023/04/19 21:31:40;;;;;;;10.02;3.63;;;;;;;9.49;38.78;101042.28;10148930;29;19962;-76
2023/04/19 21:36:43;;;;;;;5.68;3.72;;;;;;;9.51;39.02;101045.69;10141156;29;20550;-76
2023/04/19 21:41:46;;;;;;;;;;;;;;;9.36;39.50;101040.50;10148309;29;20132;-76
2023/04/19 21:46:50;;;;;;;5.00;3.70;;;;;;;9.12;41.18;101041.13;10144488;29;20034;-75
2023/04/19 21:51:53;;;;;;;5.32;3.40;;;;;;;9.01;42.02;101027.56;10145984;29;20089;-76
2023/04/19 21:56:56;;;;;;;5.00;3.65;;;;;;;8.90;41.79;101028.25;10147216;29;20080;-76
2023/04/19 22:02:00;;;;;;;7.75;3.92;;;;;;;9.02;42.00;101019.44;10145952;29;20055;-76
2023/04/19 22:07:03;;;;;;;7.07;3.78;;;;;;;9.08;40.86;101012.81;10139910;29;20048;-75
2023/04/19 22:12:08;;;;;;;4.97;3.40;;;;;;;9.18;39.96;101007.69;10144056;29;20488;-77
2023/04/19 22:17:12;;;;;;;5.85;3.40;;;;;;;9.15;39.95;100992.66;10144749;29;20052;-76
2023/04/19 22:22:15;;;;;;;6.07;3.33;;;;;;;9.20;39.42;100989.69;10141651;29;20128;-76
2023/04/19 22:27:18;;;;;;;5.80;3.40;;;;;;;9.22;39.32;100977.06;10148284;29;20088;-75
2023/04/19 22:32:22;;;;;;;;;;;;;;;9.11;38.61;100968.88;10138159;29;20083;-76
2023/04/19 22:37:25;;;;;;;6.05;4.05;;;;;;;9.31;38.92;100967.53;10146282;29;19982;-76
2023/04/19 22:42:27;;;;;;;9.57;3.20;;;;;;;9.32;38.02;100948.66;10152470;29;20123;-76
2023/04/19 22:47:32;;;;;;;;;;;;;;;9.30;37.98;100945.25;10152274;29;20541;-77
2023/04/19 22:52:35;;;;;;;6.47;3.08;;;;;;;9.28;38.18;100942.66;10153838;29;19927;-76
2023/04/19 22:57:37;;;;;;;;;;;;;;;9.15;38.52;100938.22;10145738;29;20040;-75
2023/04/19 23:02:41;;;;;;;6.45;3.22;;;;;;;9.07;38.75;100919.94;10155107;29;19924;-76
2023/04/19 23:07:45;;;;;;;3.60;2.83;;;;;;;9.16;38.88;100922.03;10151594;29;20131;-76
2023/04/19 23:12:47;;;;;;;6.63;2.92;;;;;;;9.15;38.95;100916.75;10152948;29;20168;-76
2023/04/19 23:17:52;;;;;;;8.48;3.20;;;;;;;9.11;39.40;100913.44;10149259;29;20053;-76
2023/04/19 23:22:55;;;;;;;4.97;2.85;;;;;;;9.06;39.52;100894.13;10165551;29;20068;-76
2023/04/19 23:27:57;;;;;;;;;;;;;;;9.02;39.89;100888.13;10178262;29;20051;-75
2023/04/19 23:33:01;;;;;;;8.50;3.10;;;;;;;8.97;40.18;100886.69;10167218;29;19923;-76